sensor_id;sensor_type;location;lat;lon;timestamp;temperature;humidity
33109;HTU21D;19481;51.118;6.940;2022-07-06T00:02:52;15.52;46.89
33109;HTU21D;19481;51.118;6.940;2022-07-06T00:07:55;15.33;47.33
33109;HTU21D;19481;51.118;6.940;2022-07-06T00:12:57;15.25;47.40
33109;HTU21D;19481;51.118;6.940;2022-07-06T00:17:58;15.11;47.67
33109;HTU21D;19481;51.118;6.940;2022-07-06T00:23:01;14.98;47.99
33109;HTU21D;19481;51.118;6.940;2022-07-06T00:28:03;14.91;48.19
33109;HTU21D;19481;51.118;6.940;2022-07-06T00:33:05;14.83;48.34
33109;HTU21D;19481;51.118;6.940;2022-07-06T00:38:08;14.63;48.85
33109;HTU21D;19481;51.118;6.940;2022-07-06T00:43:10;14.52;48.99
33109;HTU21D;19481;51.118;6.940;2022-07-06T00:48:12;14.51;48.83
33109;HTU21D;19481;51.118;6.940;2022-07-06T00:53:15;14.35;49.24
33109;HTU21D;19481;51.118;6.940;2022-07-06T00:58:16;14.25;49.37
33109;HTU21D;19481;51.118;6.940;2022-07-06T01:03:18;14.13;49.53
33109;HTU21D;19481;51.118;6.940;2022-07-06T01:08:21;14.03;49.85
33109;HTU21D;19481;51.118;6.940;2022-07-06T01:13:24;13.86;50.32
33109;HTU21D;19481;51.118;6.940;2022-07-06T01:18:27;13.79;50.35
33109;HTU21D;19481;51.118;6.940;2022-07-06T01:23:30;13.68;50.69
33109;HTU21D;19481;51.118;6.940;2022-07-06T01:28:32;13.66;50.49
33109;HTU21D;19481;51.118;6.940;2022-07-06T01:33:33;13.55;50.84
33109;HTU21D;19481;51.118;6.940;2022-07-06T01:38:45;13.52;52.04
33109;HTU21D;19481;51.118;6.940;2022-07-06T01:43:47;13.30;51.63
33109;HTU21D;19481;51.118;6.940;2022-07-06T01:48:48;13.26;51.73
33109;HTU21D;19481;51.118;6.940;2022-07-06T01:53:52;13.25;51.70
33109;HTU21D;19481;51.118;6.940;2022-07-06T01:58:54;13.07;52.28
33109;HTU21D;19481;51.118;6.940;2022-07-06T02:03:55;13.02;52.20
33109;HTU21D;19481;51.118;6.940;2022-07-06T02:08:58;12.86;52.76
33109;HTU21D;19481;51.118;6.940;2022-07-06T02:14:00;12.66;53.36
33109;HTU21D;19481;51.118;6.940;2022-07-06T02:19:02;12.63;53.36
33109;HTU21D;19481;51.118;6.940;2022-07-06T02:24:05;12.56;53.68
33109;HTU21D;19481;51.118;6.940;2022-07-06T02:29:07;12.58;53.42
33109;HTU21D;19481;51.118;6.940;2022-07-06T02:34:08;12.45;53.83
33109;HTU21D;19481;51.118;6.940;2022-07-06T02:39:11;12.40;53.94
33109;HTU21D;19481;51.118;6.940;2022-07-06T02:44:12;12.27;54.27
33109;HTU21D;19481;51.118;6.940;2022-07-06T02:49:14;12.27;54.28
33109;HTU21D;19481;51.118;6.940;2022-07-06T02:54:17;12.28;54.16
33109;HTU21D;19481;51.118;6.940;2022-07-06T02:59:19;12.17;54.74
33109;HTU21D;19481;51.118;6.940;2022-07-06T03:04:21;12.13;54.77
33109;HTU21D;19481;51.118;6.940;2022-07-06T03:09:23;12.03;54.91
33109;HTU21D;19481;51.118;6.940;2022-07-06T03:14:25;11.94;55.33
33109;HTU21D;19481;51.118;6.940;2022-07-06T03:19:27;11.86;55.48
33109;HTU21D;19481;51.118;6.940;2022-07-06T03:24:30;11.82;55.69
33109;HTU21D;19481;51.118;6.940;2022-07-06T03:29:31;11.78;55.69
33109;HTU21D;19481;51.118;6.940;2022-07-06T03:34:33;11.64;56.32
33109;HTU21D;19481;51.118;6.940;2022-07-06T03:39:36;11.64;56.05
33109;HTU21D;19481;51.118;6.940;2022-07-06T03:44:38;11.66;56.23
33109;HTU21D;19481;51.118;6.940;2022-07-06T03:49:39;11.74;56.15
33109;HTU21D;19481;51.118;6.940;2022-07-06T03:54:42;11.84;55.67
33109;HTU21D;19481;51.118;6.940;2022-07-06T03:59:44;11.90;55.63
33109;HTU21D;19481;51.118;6.940;2022-07-06T04:04:45;12.10;55.39
33109;HTU21D;19481;51.118;6.940;2022-07-06T04:09:48;12.28;55.09
33109;HTU21D;19481;51.118;6.940;2022-07-06T04:14:50;12.32;55.31
33109;HTU21D;19481;51.118;6.940;2022-07-06T04:19:54;12.41;55.50
33109;HTU21D;19481;51.118;6.940;2022-07-06T04:24:57;12.49;55.36
33109;HTU21D;19481;51.118;6.940;2022-07-06T04:29:58;12.50;55.52
33109;HTU21D;19481;51.118;6.940;2022-07-06T04:35:00;12.64;55.35
33109;HTU21D;19481;51.118;6.940;2022-07-06T04:40:04;13.04;54.69
33109;HTU21D;19481;51.118;6.940;2022-07-06T04:45:06;13.82;53.07
33109;HTU21D;19481;51.118;6.940;2022-07-06T04:50:08;13.89;53.41
33109;HTU21D;19481;51.118;6.940;2022-07-06T04:55:11;13.68;54.48
33109;HTU21D;19481;51.118;6.940;2022-07-06T05:00:15;13.89;54.15
33109;HTU21D;19481;51.118;6.940;2022-07-06T05:05:17;13.82;54.76
33109;HTU21D;19481;51.118;6.940;2022-07-06T05:10:20;13.89;55.02
33109;HTU21D;19481;51.118;6.940;2022-07-06T05:15:21;14.00;54.91
33109;HTU21D;19481;51.118;6.940;2022-07-06T05:20:23;14.25;54.42
33109;HTU21D;19481;51.118;6.940;2022-07-06T05:25:26;14.47;54.11
33109;HTU21D;19481;51.118;6.940;2022-07-06T05:30:28;14.42;54.49
33109;HTU21D;19481;51.118;6.940;2022-07-06T05:35:30;14.75;53.75
33109;HTU21D;19481;51.118;6.940;2022-07-06T05:40:33;15.69;51.47
33109;HTU21D;19481;51.118;6.940;2022-07-06T05:45:35;16.00;51.36
33109;HTU21D;19481;51.118;6.940;2022-07-06T05:50:36;16.11;51.66
33109;HTU21D;19481;51.118;6.940;2022-07-06T05:55:39;16.21;51.95
33109;HTU21D;19481;51.118;6.940;2022-07-06T06:00:41;16.52;51.39
33109;HTU21D;19481;51.118;6.940;2022-07-06T06:05:43;17.09;50.20
33109;HTU21D;19481;51.118;6.940;2022-07-06T06:10:46;17.99;48.66
33109;HTU21D;19481;51.118;6.940;2022-07-06T06:15:47;18.05;49.35
33109;HTU21D;19481;51.118;6.940;2022-07-06T06:20:49;18.53;48.70
33109;HTU21D;19481;51.118;6.940;2022-07-06T06:25:52;18.41;49.63
33109;HTU21D;19481;51.118;6.940;2022-07-06T06:30:54;19.83;46.50
33109;HTU21D;19481;51.118;6.940;2022-07-06T06:35:55;19.88;47.20
33109;HTU21D;19481;51.118;6.940;2022-07-06T06:41:00;20.00;47.28
33109;HTU21D;19481;51.118;6.940;2022-07-06T06:46:01;20.12;47.53
33109;HTU21D;19481;51.118;6.940;2022-07-06T06:51:03;19.68;48.42
33109;HTU21D;19481;51.118;6.940;2022-07-06T06:56:08;18.93;49.66
33109;HTU21D;19481;51.118;6.940;2022-07-06T07:01:10;20.54;45.50
33109;HTU21D;19481;51.118;6.940;2022-07-06T07:06:11;21.73;43.70
33109;HTU21D;19481;51.118;6.940;2022-07-06T07:11:14;20.87;46.19
33109;HTU21D;19481;51.118;6.940;2022-07-06T07:16:16;20.76;46.64
33109;HTU21D;19481;51.118;6.940;2022-07-06T07:21:17;19.31;49.21
33109;HTU21D;19481;51.118;6.940;2022-07-06T07:26:20;18.82;49.02
33109;HTU21D;19481;51.118;6.940;2022-07-06T07:31:22;18.80;47.96
33109;HTU21D;19481;51.118;6.940;2022-07-06T07:36:24;18.57;48.00
33109;HTU21D;19481;51.118;6.940;2022-07-06T07:41:27;18.38;47.88
33109;HTU21D;19481;51.118;6.940;2022-07-06T07:46:29;17.94;48.39
33109;HTU21D;19481;51.118;6.940;2022-07-06T07:51:30;17.84;47.80
33109;HTU21D;19481;51.118;6.940;2022-07-06T07:56:33;17.76;47.44
33109;HTU21D;19481;51.118;6.940;2022-07-06T08:01:35;18.04;46.51
33109;HTU21D;19481;51.118;6.940;2022-07-06T08:06:37;18.46;45.60
33109;HTU21D;19481;51.118;6.940;2022-07-06T08:11:40;18.44;45.87
33109;HTU21D;19481;51.118;6.940;2022-07-06T08:16:43;18.48;46.01
33109;HTU21D;19481;51.118;6.940;2022-07-06T08:21:45;18.50;45.89
33109;HTU21D;19481;51.118;6.940;2022-07-06T08:26:48;18.65;45.61
33109;HTU21D;19481;51.118;6.940;2022-07-06T08:31:50;19.00;44.90
33109;HTU21D;19481;51.118;6.940;2022-07-06T08:36:51;19.57;44.00
33109;HTU21D;19481;51.118;6.940;2022-07-06T08:41:55;22.46;38.17
33109;HTU21D;19481;51.118;6.940;2022-07-06T08:46:58;25.15;35.23
33109;HTU21D;19481;51.118;6.940;2022-07-06T08:52:04;26.41;34.94
33109;HTU21D;19481;51.118;6.940;2022-07-06T08:57:07;26.31;36.24
33109;HTU21D;19481;51.118;6.940;2022-07-06T09:02:09;23.89;42.56
33109;HTU21D;19481;51.118;6.940;2022-07-06T09:07:11;21.84;45.54
33109;HTU21D;19481;51.118;6.940;2022-07-06T09:12:15;20.93;45.05
33109;HTU21D;19481;51.118;6.940;2022-07-06T09:17:16;20.72;44.14
33109;HTU21D;19481;51.118;6.940;2022-07-06T09:22:26;20.16;43.90
33109;HTU21D;19481;51.118;6.940;2022-07-06T09:27:29;19.68;44.19
33109;HTU21D;19481;51.118;6.940;2022-07-06T09:32:31;19.61;43.16
33109;HTU21D;19481;51.118;6.940;2022-07-06T09:37:33;19.89;41.77
33109;HTU21D;19481;51.118;6.940;2022-07-06T09:42:37;19.72;41.55
33109;HTU21D;19481;51.118;6.940;2022-07-06T09:47:38;19.91;40.89
33109;HTU21D;19481;51.118;6.940;2022-07-06T09:52:53;20.63;38.46
33109;HTU21D;19481;51.118;6.940;2022-07-06T09:57:56;21.78;36.98
33109;HTU21D;19481;51.118;6.940;2022-07-06T10:02:58;23.70;34.86
33109;HTU21D;19481;51.118;6.940;2022-07-06T10:08:00;23.66;36.85
33109;HTU21D;19481;51.118;6.940;2022-07-06T10:13:07;23.52;36.66
33109;HTU21D;19481;51.118;6.940;2022-07-06T10:18:10;23.90;36.85
33109;HTU21D;19481;51.118;6.940;2022-07-06T10:23:12;24.18;36.47
33109;HTU21D;19481;51.118;6.940;2022-07-06T10:28:15;22.86;38.72
33109;HTU21D;19481;51.118;6.940;2022-07-06T10:33:17;22.64;38.42
33109;HTU21D;19481;51.118;6.940;2022-07-06T10:38:19;22.37;38.13
33109;HTU21D;19481;51.118;6.940;2022-07-06T10:43:22;22.19;37.98
33109;HTU21D;19481;51.118;6.940;2022-07-06T10:48:34;22.93;32.29
33109;HTU21D;19481;51.118;6.940;2022-07-06T10:53:37;23.54;35.07
33109;HTU21D;19481;51.118;6.940;2022-07-06T10:58:48;22.94;33.60
33109;HTU21D;19481;51.118;6.940;2022-07-06T11:04:05;23.81;31.14
33109;HTU21D;19481;51.118;6.940;2022-07-06T11:09:08;24.19;33.68
33109;HTU21D;19481;51.118;6.940;2022-07-06T11:14:13;24.55;32.80
33109;HTU21D;19481;51.118;6.940;2022-07-06T11:19:16;24.78;32.89
33109;HTU21D;19481;51.118;6.940;2022-07-06T11:24:19;24.77;32.83
33109;HTU21D;19481;51.118;6.940;2022-07-06T11:29:24;25.72;31.27
33109;HTU21D;19481;51.118;6.940;2022-07-06T11:34:28;25.20;32.48
33109;HTU21D;19481;51.118;6.940;2022-07-06T11:39:31;24.32;33.95
33109;HTU21D;19481;51.118;6.940;2022-07-06T11:44:35;24.43;33.18
33109;HTU21D;19481;51.118;6.940;2022-07-06T11:49:38;23.55;34.32
33109;HTU21D;19481;51.118;6.940;2022-07-06T11:54:41;23.27;34.17
33109;HTU21D;19481;51.118;6.940;2022-07-06T11:59:45;23.53;33.07
33109;HTU21D;19481;51.118;6.940;2022-07-06T12:04:49;24.54;30.82
33109;HTU21D;19481;51.118;6.940;2022-07-06T12:09:50;25.10;30.32
33109;HTU21D;19481;51.118;6.940;2022-07-06T12:14:53;24.28;31.85
33109;HTU21D;19481;51.118;6.940;2022-07-06T12:19:55;23.85;32.77
33109;HTU21D;19481;51.118;6.940;2022-07-06T12:24:58;23.80;32.38
33109;HTU21D;19481;51.118;6.940;2022-07-06T12:30:09;23.52;31.05
33109;HTU21D;19481;51.118;6.940;2022-07-06T12:35:11;23.30;32.93
33109;HTU21D;19481;51.118;6.940;2022-07-06T12:40:14;22.93;33.34
33109;HTU21D;19481;51.118;6.940;2022-07-06T12:45:18;23.14;32.50
33109;HTU21D;19481;51.118;6.940;2022-07-06T12:50:19;23.98;30.79
33109;HTU21D;19481;51.118;6.940;2022-07-06T12:55:25;24.25;30.47
33109;HTU21D;19481;51.118;6.940;2022-07-06T13:00:43;24.46;27.58
33109;HTU21D;19481;51.118;6.940;2022-07-06T13:05:48;24.16;28.59
33109;HTU21D;19481;51.118;6.940;2022-07-06T13:10:50;23.99;32.14
33109;HTU21D;19481;51.118;6.940;2022-07-06T13:15:53;23.55;32.78
33109;HTU21D;19481;51.118;6.940;2022-07-06T13:20:55;23.29;32.96
33109;HTU21D;19481;51.118;6.940;2022-07-06T13:25:56;23.21;32.89
33109;HTU21D;19481;51.118;6.940;2022-07-06T13:31:00;23.40;32.39
33109;HTU21D;19481;51.118;6.940;2022-07-06T13:36:02;23.73;31.73
33109;HTU21D;19481;51.118;6.940;2022-07-06T13:41:04;23.99;31.45
33109;HTU21D;19481;51.118;6.940;2022-07-06T13:46:08;23.98;31.58
33109;HTU21D;19481;51.118;6.940;2022-07-06T13:51:10;24.84;30.08
33109;HTU21D;19481;51.118;6.940;2022-07-06T13:56:12;24.88;30.20
33109;HTU21D;19481;51.118;6.940;2022-07-06T14:01:15;24.64;30.77
33109;HTU21D;19481;51.118;6.940;2022-07-06T14:06:18;25.00;30.35
33109;HTU21D;19481;51.118;6.940;2022-07-06T14:11:20;24.79;30.70
33109;HTU21D;19481;51.118;6.940;2022-07-06T14:16:23;24.51;31.07
33109;HTU21D;19481;51.118;6.940;2022-07-06T14:21:26;23.67;32.51
33109;HTU21D;19481;51.118;6.940;2022-07-06T14:26:28;24.49;30.67
33109;HTU21D;19481;51.118;6.940;2022-07-06T14:31:31;24.85;30.07
33109;HTU21D;19481;51.118;6.940;2022-07-06T14:36:33;24.79;30.48
33109;HTU21D;19481;51.118;6.940;2022-07-06T14:41:34;25.03;30.03
33109;HTU21D;19481;51.118;6.940;2022-07-06T14:46:38;24.74;30.54
33109;HTU21D;19481;51.118;6.940;2022-07-06T14:51:39;24.68;30.60
33109;HTU21D;19481;51.118;6.940;2022-07-06T14:56:41;24.04;31.48
33109;HTU21D;19481;51.118;6.940;2022-07-06T15:01:44;24.15;31.06
33109;HTU21D;19481;51.118;6.940;2022-07-06T15:06:46;24.00;31.18
33109;HTU21D;19481;51.118;6.940;2022-07-06T15:11:47;23.94;30.92
33109;HTU21D;19481;51.118;6.940;2022-07-06T15:16:51;23.67;31.29
33109;HTU21D;19481;51.118;6.940;2022-07-06T15:21:53;23.57;31.20
33109;HTU21D;19481;51.118;6.940;2022-07-06T15:26:55;23.46;31.26
33109;HTU21D;19481;51.118;6.940;2022-07-06T15:31:58;23.24;31.64
33109;HTU21D;19481;51.118;6.940;2022-07-06T15:37:00;23.23;31.56
33109;HTU21D;19481;51.118;6.940;2022-07-06T15:42:03;23.64;30.74
33109;HTU21D;19481;51.118;6.940;2022-07-06T15:47:07;23.79;30.43
33109;HTU21D;19481;51.118;6.940;2022-07-06T15:52:08;23.72;30.72
33109;HTU21D;19481;51.118;6.940;2022-07-06T15:57:10;23.36;31.56
33109;HTU21D;19481;51.118;6.940;2022-07-06T16:02:13;23.69;30.74
33109;HTU21D;19481;51.118;6.940;2022-07-06T16:07:15;23.91;30.50
33109;HTU21D;19481;51.118;6.940;2022-07-06T16:12:16;24.05;30.38
33109;HTU21D;19481;51.118;6.940;2022-07-06T16:17:19;24.05;30.50
33109;HTU21D;19481;51.118;6.940;2022-07-06T16:22:21;23.65;31.28
33109;HTU21D;19481;51.118;6.940;2022-07-06T16:27:23;23.26;31.94
33109;HTU21D;19481;51.118;6.940;2022-07-06T16:32:26;23.34;31.64
33109;HTU21D;19481;51.118;6.940;2022-07-06T16:37:29;22.94;32.41
33109;HTU21D;19481;51.118;6.940;2022-07-06T16:42:30;23.23;31.76
33109;HTU21D;19481;51.118;6.940;2022-07-06T16:47:33;22.98;32.17
33109;HTU21D;19481;51.118;6.940;2022-07-06T16:52:35;22.63;32.76
33109;HTU21D;19481;51.118;6.940;2022-07-06T16:57:37;22.47;32.83
33109;HTU21D;19481;51.118;6.940;2022-07-06T17:02:40;22.46;32.83
33109;HTU21D;19481;51.118;6.940;2022-07-06T17:07:42;22.47;32.67
33109;HTU21D;19481;51.118;6.940;2022-07-06T17:12:44;22.31;32.96
33109;HTU21D;19481;51.118;6.940;2022-07-06T17:17:47;22.52;32.42
33109;HTU21D;19481;51.118;6.940;2022-07-06T17:22:48;22.46;32.64
33109;HTU21D;19481;51.118;6.940;2022-07-06T17:27:50;22.24;33.05
33109;HTU21D;19481;51.118;6.940;2022-07-06T17:32:53;22.14;33.23
33109;HTU21D;19481;51.118;6.940;2022-07-06T17:37:55;22.03;33.32
33109;HTU21D;19481;51.118;6.940;2022-07-06T17:42:57;21.99;33.40
33109;HTU21D;19481;51.118;6.940;2022-07-06T17:48:00;21.93;33.55
33109;HTU21D;19481;51.118;6.940;2022-07-06T17:53:02;21.95;33.51
33109;HTU21D;19481;51.118;6.940;2022-07-06T17:58:04;21.97;33.47
33109;HTU21D;19481;51.118;6.940;2022-07-06T18:03:09;21.97;33.60
33109;HTU21D;19481;51.118;6.940;2022-07-06T18:08:10;21.98;33.58
33109;HTU21D;19481;51.118;6.940;2022-07-06T18:13:12;21.78;33.94
33109;HTU21D;19481;51.118;6.940;2022-07-06T18:18:15;21.82;33.93
33109;HTU21D;19481;51.118;6.940;2022-07-06T18:23:17;21.67;34.19
33109;HTU21D;19481;51.118;6.940;2022-07-06T18:28:19;21.69;34.17
33109;HTU21D;19481;51.118;6.940;2022-07-06T18:33:23;21.60;34.33
33109;HTU21D;19481;51.118;6.940;2022-07-06T18:38:26;21.54;34.42
33109;HTU21D;19481;51.118;6.940;2022-07-06T18:43:28;21.51;34.70
33109;HTU21D;19481;51.118;6.940;2022-07-06T18:48:31;21.49;34.76
33109;HTU21D;19481;51.118;6.940;2022-07-06T18:53:32;21.45;34.89
33109;HTU21D;19481;51.118;6.940;2022-07-06T18:58:34;21.44;34.95
33109;HTU21D;19481;51.118;6.940;2022-07-06T19:03:37;21.38;35.17
33109;HTU21D;19481;51.118;6.940;2022-07-06T19:08:39;21.31;35.26
33109;HTU21D;19481;51.118;6.940;2022-07-06T19:13:40;21.25;35.38
33109;HTU21D;19481;51.118;6.940;2022-07-06T19:18:43;21.20;35.65
33109;HTU21D;19481;51.118;6.940;2022-07-06T19:23:45;21.15;35.76
33109;HTU21D;19481;51.118;6.940;2022-07-06T19:28:47;21.14;35.87
33109;HTU21D;19481;51.118;6.940;2022-07-06T19:33:50;21.02;36.28
33109;HTU21D;19481;51.118;6.940;2022-07-06T19:38:51;20.91;36.42
33109;HTU21D;19481;51.118;6.940;2022-07-06T19:43:53;20.83;36.58
33109;HTU21D;19481;51.118;6.940;2022-07-06T19:48:56;20.77;36.66
33109;HTU21D;19481;51.118;6.940;2022-07-06T19:53:57;20.73;36.68
33109;HTU21D;19481;51.118;6.940;2022-07-06T19:58:59;20.66;36.83
33109;HTU21D;19481;51.118;6.940;2022-07-06T20:04:02;20.60;36.99
33109;HTU21D;19481;51.118;6.940;2022-07-06T20:09:04;20.60;37.01
33109;HTU21D;19481;51.118;6.940;2022-07-06T20:14:07;20.54;37.20
33109;HTU21D;19481;51.118;6.940;2022-07-06T20:19:10;20.48;37.44
33109;HTU21D;19481;51.118;6.940;2022-07-06T20:24:13;20.39;37.76
33109;HTU21D;19481;51.118;6.940;2022-07-06T20:29:16;20.31;37.98
33109;HTU21D;19481;51.118;6.940;2022-07-06T20:34:19;20.29;38.06
33109;HTU21D;19481;51.118;6.940;2022-07-06T20:39:21;20.26;38.17
33109;HTU21D;19481;51.118;6.940;2022-07-06T20:44:23;20.21;38.25
33109;HTU21D;19481;51.118;6.940;2022-07-06T20:49:25;20.22;38.28
33109;HTU21D;19481;51.118;6.940;2022-07-06T20:54:27;20.22;38.26
33109;HTU21D;19481;51.118;6.940;2022-07-06T20:59:29;20.18;38.43
33109;HTU21D;19481;51.118;6.940;2022-07-06T21:04:34;20.16;38.62
33109;HTU21D;19481;51.118;6.940;2022-07-06T21:09:35;20.11;38.91
33109;HTU21D;19481;51.118;6.940;2022-07-06T21:14:37;20.10;39.09
33109;HTU21D;19481;51.118;6.940;2022-07-06T21:19:40;20.13;39.16
33109;HTU21D;19481;51.118;6.940;2022-07-06T21:24:42;20.07;39.33
33109;HTU21D;19481;51.118;6.940;2022-07-06T21:29:43;20.10;39.40
33109;HTU21D;19481;51.118;6.940;2022-07-06T21:34:46;20.05;39.63
33109;HTU21D;19481;51.118;6.940;2022-07-06T21:39:48;20.03;39.63
33109;HTU21D;19481;51.118;6.940;2022-07-06T21:44:49;19.95;39.85
33109;HTU21D;19481;51.118;6.940;2022-07-06T21:49:52;19.91;40.00
33109;HTU21D;19481;51.118;6.940;2022-07-06T21:54:54;19.90;40.03
33109;HTU21D;19481;51.118;6.940;2022-07-06T21:59:55;19.90;40.04
33109;HTU21D;19481;51.118;6.940;2022-07-06T22:04:58;19.89;40.22
33109;HTU21D;19481;51.118;6.940;2022-07-06T22:10:00;19.94;40.11
33109;HTU21D;19481;51.118;6.940;2022-07-06T22:15:02;19.89;40.30
33109;HTU21D;19481;51.118;6.940;2022-07-06T22:20:07;19.91;40.47
33109;HTU21D;19481;51.118;6.940;2022-07-06T22:25:09;19.89;40.55
33109;HTU21D;19481;51.118;6.940;2022-07-06T22:30:11;19.79;40.84
33109;HTU21D;19481;51.118;6.940;2022-07-06T22:35:14;19.63;41.18
33109;HTU21D;19481;51.118;6.940;2022-07-06T22:40:15;19.57;41.32
33109;HTU21D;19481;51.118;6.940;2022-07-06T22:45:34;19.50;41.56
33109;HTU21D;19481;51.118;6.940;2022-07-06T22:50:37;19.53;41.58
33109;HTU21D;19481;51.118;6.940;2022-07-06T22:55:39;19.50;41.61
33109;HTU21D;19481;51.118;6.940;2022-07-06T23:00:41;19.50;41.69
33109;HTU21D;19481;51.118;6.940;2022-07-06T23:05:44;19.52;41.79
33109;HTU21D;19481;51.118;6.940;2022-07-06T23:10:45;19.46;41.99
33109;HTU21D;19481;51.118;6.940;2022-07-06T23:15:47;19.52;42.06
33109;HTU21D;19481;51.118;6.940;2022-07-06T23:20:50;19.53;42.22
33109;HTU21D;19481;51.118;6.940;2022-07-06T23:25:52;19.56;42.23
33109;HTU21D;19481;51.118;6.940;2022-07-06T23:30:53;19.52;42.46
33109;HTU21D;19481;51.118;6.940;2022-07-06T23:35:58;19.57;43.58
33109;HTU21D;19481;51.118;6.940;2022-07-06T23:41:00;19.54;42.74
33109;HTU21D;19481;51.118;6.940;2022-07-06T23:46:01;19.55;42.84
33109;HTU21D;19481;51.118;6.940;2022-07-06T23:51:04;19.57;43.05
33109;HTU21D;19481;51.118;6.940;2022-07-06T23:56:06;19.55;43.20
